createdAt,value
2018-04-27T00:02:16.705Z,2.87
2018-04-27T00:04:44.201Z,2.80
2018-04-27T00:07:11.681Z,3.03
2018-04-27T00:09:39.177Z,2.37
2018-04-27T00:12:06.653Z,3.00
2018-04-27T00:14:34.159Z,2.75
2018-04-27T00:17:01.717Z,2.37
2018-04-27T00:19:29.167Z,2.40
2018-04-27T00:21:56.645Z,3.22
2018-04-27T00:24:24.145Z,3.03
2018-04-27T00:26:51.624Z,3.15
2018-04-27T00:29:19.118Z,2.78
2018-04-27T00:31:46.613Z,3.12
2018-04-27T00:34:14.155Z,2.70
2018-04-27T00:36:41.609Z,2.17
2018-04-27T00:39:09.870Z,2.35
2018-04-27T00:41:37.359Z,2.70
2018-04-27T00:44:04.848Z,2.53
2018-04-27T00:46:33.095Z,3.00
2018-04-27T00:49:00.593Z,2.95
2018-04-27T00:51:28.089Z,2.70
2018-04-27T00:53:55.590Z,2.83
2018-04-27T00:56:23.076Z,2.50
2018-04-27T00:58:50.577Z,3.12
2018-04-27T01:01:18.053Z,3.03
2018-04-27T01:03:45.549Z,2.62
2018-04-27T01:06:13.042Z,2.95
2018-04-27T01:08:40.518Z,3.20
2018-04-27T01:11:08.022Z,2.50
2018-04-27T01:13:35.516Z,2.80
2018-04-27T01:16:03.014Z,2.80
2018-04-27T01:18:30.497Z,2.72
2018-04-27T01:20:58.001Z,3.75
2018-04-27T01:23:25.491Z,2.70
2018-04-27T01:25:53.760Z,2.85
2018-04-27T01:28:21.242Z,3.15
2018-04-27T01:30:48.749Z,2.70
2018-04-27T01:33:16.245Z,3.35
2018-04-27T01:35:43.738Z,2.53
2018-04-27T01:38:11.220Z,2.92
2018-04-27T01:40:38.716Z,2.97
2018-04-27T01:43:06.968Z,4.10
2018-04-27T01:45:34.470Z,3.30
2018-04-27T01:48:01.954Z,2.70
2018-04-27T01:50:29.489Z,2.45
2018-04-27T01:52:56.978Z,2.67
2018-04-27T01:55:24.473Z,3.72
2018-04-27T01:57:51.960Z,2.45
2018-04-27T02:00:19.465Z,2.67
2018-04-27T02:02:46.949Z,3.22
2018-04-27T02:05:14.451Z,2.67
2018-04-27T02:07:41.924Z,3.20
2018-04-27T02:10:09.420Z,2.87
2018-04-27T02:12:36.905Z,2.58
2018-04-27T02:15:04.396Z,3.30
2018-04-27T02:17:31.878Z,2.78
2018-04-27T02:19:59.378Z,2.65
2018-04-27T02:22:26.865Z,2.40
2018-04-27T02:24:55.027Z,2.30
2018-04-27T02:27:22.531Z,2.35
2018-04-27T02:29:50.011Z,2.75
2018-04-27T02:32:18.273Z,2.95
2018-04-27T02:34:45.750Z,2.58
2018-04-27T02:37:13.250Z,2.60
2018-04-27T02:39:40.741Z,2.90
2018-04-27T02:42:08.246Z,2.55
2018-04-27T02:44:35.729Z,2.55
2018-04-27T02:47:03.230Z,3.62
2018-04-27T02:49:30.725Z,3.10
2018-04-27T02:51:58.220Z,3.10
2018-04-27T02:54:25.701Z,3.20
2018-04-27T02:56:53.209Z,2.65
2018-04-27T02:59:20.693Z,2.35
2018-04-27T03:01:48.189Z,2.60
2018-04-27T03:04:15.676Z,2.60
2018-04-27T03:06:43.181Z,3.45
2018-04-27T03:09:10.662Z,2.60
2018-04-27T03:11:38.176Z,3.85
2018-04-27T03:14:05.666Z,3.25
2018-04-27T03:16:33.173Z,2.72
2018-04-27T03:19:00.656Z,3.35
2018-04-27T03:21:28.152Z,2.80
2018-04-27T03:23:55.645Z,3.15
2018-04-27T03:26:23.153Z,3.37
2018-04-27T03:28:50.635Z,3.40
2018-04-27T03:31:18.141Z,3.30
2018-04-27T03:33:45.628Z,3.12
2018-04-27T03:36:13.131Z,3.00
2018-04-27T03:38:40.616Z,2.50
2018-04-27T03:41:08.123Z,3.22
2018-04-27T03:43:35.617Z,2.90
2018-04-27T03:46:03.114Z,3.33
2018-04-27T03:48:30.597Z,3.55
2018-04-27T03:50:58.102Z,3.58
2018-04-27T03:53:25.600Z,4.43
2018-04-27T03:55:53.107Z,4.07
2018-04-27T03:58:21.361Z,3.70
2018-04-27T04:01:01.277Z,3.58
2018-04-27T04:03:40.600Z,3.75
2018-04-27T04:06:08.107Z,3.75
2018-04-27T04:08:35.593Z,3.15
2018-04-27T04:11:03.097Z,2.83
2018-04-27T04:13:30.576Z,3.42
2018-04-27T04:15:58.065Z,4.30
2018-04-27T04:18:26.384Z,4.82
2018-04-27T04:20:53.861Z,4.93
2018-04-27T04:23:22.129Z,3.67
2018-04-27T04:25:49.623Z,3.83
2018-04-27T04:28:17.138Z,3.70
2018-04-27T04:30:44.620Z,4.40
2018-04-27T04:33:12.118Z,3.75
2018-04-27T04:35:39.620Z,4.18
2018-04-27T04:38:07.125Z,4.10
2018-04-27T04:40:34.614Z,4.43
2018-04-27T04:43:02.880Z,3.62
2018-04-27T04:45:30.361Z,3.60
2018-04-27T04:47:57.888Z,4.25
2018-04-27T04:50:25.376Z,4.10
2018-04-27T04:52:52.884Z,3.85
2018-04-27T04:55:20.381Z,5.03
2018-04-27T04:57:47.884Z,4.90
2018-04-27T05:00:15.374Z,4.20
2018-04-27T05:02:42.959Z,4.50
2018-04-27T05:05:10.378Z,4.87
2018-04-27T05:07:37.880Z,4.40
2018-04-27T05:10:05.368Z,4.30
2018-04-27T05:12:32.881Z,4.57
2018-04-27T05:15:00.377Z,5.07
2018-04-27T05:17:27.888Z,5.80
2018-04-27T05:19:55.304Z,4.90
2018-04-27T05:22:22.819Z,5.25
2018-04-27T05:24:50.313Z,4.75
2018-04-27T05:27:17.815Z,6.37
2018-04-27T05:29:45.318Z,5.37
2018-04-27T05:32:12.809Z,6.20
2018-04-27T05:34:40.297Z,4.47
2018-04-27T05:37:07.797Z,4.75
2018-04-27T05:39:35.281Z,4.87
2018-04-27T05:42:02.809Z,5.47
2018-04-27T05:44:31.090Z,5.28
2018-04-27T05:46:58.684Z,4.80
2018-04-27T05:49:26.205Z,5.07
2018-04-27T05:51:53.695Z,5.32
2018-04-27T05:54:21.192Z,5.43
2018-04-27T05:56:48.677Z,4.95
2018-04-27T05:59:16.188Z,4.55
2018-04-27T06:01:43.665Z,4.55
2018-04-27T06:04:13.757Z,3.97
2018-04-27T06:06:42.013Z,4.00
2018-04-27T06:09:09.517Z,4.80
2018-04-27T06:11:37.001Z,3.83
2018-04-27T06:14:04.493Z,3.45
2018-04-27T06:16:31.978Z,4.30
2018-04-27T06:18:59.489Z,4.82
2018-04-27T06:21:26.976Z,4.07
2018-04-27T06:23:54.485Z,4.03
2018-04-27T06:26:21.973Z,4.72
2018-04-27T06:28:49.476Z,4.57
2018-04-27T06:31:16.956Z,4.82
2018-04-27T06:33:44.457Z,4.75
2018-04-27T06:36:11.940Z,4.47
2018-04-27T06:38:39.442Z,3.78
2018-04-27T06:41:06.935Z,4.30
2018-04-27T06:43:34.439Z,3.80
2018-04-27T06:46:01.921Z,4.35
2018-04-27T06:48:29.421Z,3.85
2018-04-27T06:50:56.902Z,3.37
2018-04-27T06:53:24.420Z,3.58
2018-04-27T06:55:51.905Z,3.80
2018-04-27T06:58:19.403Z,3.55
2018-04-27T07:00:46.884Z,3.50
2018-04-27T07:03:14.373Z,3.58
2018-04-27T07:05:41.864Z,3.65
2018-04-27T07:08:10.112Z,3.80
2018-04-27T07:10:37.613Z,3.62
2018-04-27T07:13:05.166Z,3.55
2018-04-27T07:15:32.666Z,3.83
2018-04-27T07:18:00.913Z,3.53
2018-04-27T07:20:28.445Z,3.50
2018-04-27T07:22:55.938Z,2.80
2018-04-27T07:25:23.444Z,3.00
2018-04-27T07:27:50.925Z,3.20
2018-04-27T07:30:18.426Z,2.70
2018-04-27T07:32:45.913Z,2.50
2018-04-27T07:35:13.414Z,2.72
2018-04-27T07:37:40.910Z,3.17
2018-04-27T07:40:09.181Z,3.30
2018-04-27T07:42:37.702Z,2.60
2018-04-27T07:45:05.207Z,2.20
2018-04-27T07:47:32.688Z,2.50
2018-04-27T07:50:00.192Z,2.97
2018-04-27T07:52:27.674Z,2.70
2018-04-27T07:54:55.194Z,2.90
2018-04-27T07:57:22.677Z,2.35
2018-04-27T07:59:50.173Z,2.08
2018-04-27T08:02:17.671Z,2.50
2018-04-27T08:04:45.186Z,2.60
2018-04-27T08:07:12.726Z,2.37
2018-04-27T08:09:40.201Z,2.50
2018-04-27T08:12:07.706Z,2.37
2018-04-27T08:14:35.212Z,2.40
2018-04-27T08:17:02.695Z,2.45
2018-04-27T08:19:30.201Z,2.53
2018-04-27T08:21:57.681Z,3.40
2018-04-27T08:24:25.189Z,2.20
2018-04-27T08:26:53.437Z,1.80
2018-04-27T08:29:20.949Z,1.90
2018-04-27T08:31:48.434Z,2.30
2018-04-27T08:34:15.948Z,2.03
2018-04-27T08:36:43.443Z,2.50
2018-04-27T08:39:10.940Z,2.20
2018-04-27T08:41:38.445Z,2.78
2018-04-27T08:44:05.933Z,2.72
2018-04-27T08:46:33.429Z,1.98
2018-04-27T08:49:00.923Z,2.80
2018-04-27T08:51:28.424Z,3.15
2018-04-27T08:53:55.910Z,2.10
2018-04-27T08:56:23.415Z,2.50
2018-04-27T08:58:50.905Z,2.10
2018-04-27T09:01:18.417Z,2.83
2018-04-27T09:03:45.909Z,2.55
2018-04-27T09:06:13.455Z,3.20
2018-04-27T09:08:40.922Z,2.60
2018-04-27T09:11:08.425Z,2.60
2018-04-27T09:13:35.905Z,2.22
2018-04-27T09:16:03.423Z,2.33
2018-04-27T09:18:30.921Z,3.00
2018-04-27T09:20:58.429Z,3.00
2018-04-27T09:23:25.921Z,2.28
2018-04-27T09:25:53.432Z,2.65
2018-04-27T09:28:20.924Z,2.55
2018-04-27T09:30:48.432Z,1.95
2018-04-27T09:33:15.913Z,2.20
2018-04-27T09:35:43.424Z,2.83
2018-04-27T09:38:10.909Z,2.67
2018-04-27T09:40:38.422Z,2.30
2018-04-27T09:43:05.903Z,2.85
2018-04-27T09:45:33.410Z,3.30
2018-04-27T09:48:00.889Z,2.25
2018-04-27T09:50:28.389Z,2.42
2018-04-27T09:52:55.883Z,3.90
2018-04-27T09:55:23.391Z,2.80
2018-04-27T09:57:50.880Z,2.33
2018-04-27T10:00:18.385Z,2.42
2018-04-27T10:02:45.870Z,3.10
2018-04-27T10:05:13.368Z,2.67
2018-04-27T10:07:40.878Z,2.70
2018-04-27T10:10:08.361Z,3.00
2018-04-27T10:12:35.869Z,3.12
2018-04-27T10:15:03.368Z,2.70
2018-04-27T10:17:30.873Z,3.10
2018-04-27T10:19:58.356Z,3.40
2018-04-27T10:22:25.866Z,3.08
2018-04-27T10:24:53.353Z,3.85
2018-04-27T10:27:20.858Z,2.87
2018-04-27T10:29:48.349Z,3.45
2018-04-27T10:32:15.853Z,3.62
2018-04-27T10:34:43.338Z,3.00
2018-04-27T10:37:10.844Z,3.33
2018-04-27T10:39:38.377Z,3.30
2018-04-27T10:42:06.668Z,3.45
2018-04-27T10:44:34.164Z,3.60
2018-04-27T10:47:01.670Z,3.55
2018-04-27T10:49:29.926Z,3.53
2018-04-27T10:51:57.430Z,3.15
2018-04-27T10:54:24.927Z,4.40
2018-04-27T10:56:52.437Z,3.72
2018-04-27T10:59:19.921Z,3.35
2018-04-27T11:01:47.431Z,3.92
2018-04-27T11:04:14.917Z,3.53
2018-04-27T11:06:42.440Z,4.10
2018-04-27T11:09:09.996Z,3.62
2018-04-27T11:11:37.517Z,3.65
2018-04-27T11:14:04.998Z,3.75
2018-04-27T11:16:32.523Z,3.50
2018-04-27T11:19:00.022Z,3.65
2018-04-27T11:21:27.525Z,3.78
2018-04-27T11:23:55.018Z,4.80
2018-04-27T11:26:22.516Z,4.30
2018-04-27T11:28:50.005Z,3.78
2018-04-27T11:31:17.517Z,4.25
2018-04-27T11:33:45.004Z,3.90
2018-04-27T11:36:12.509Z,4.40
2018-04-27T11:38:40.002Z,3.65
2018-04-27T11:41:07.515Z,3.97
2018-04-27T11:43:35.004Z,4.12
2018-04-27T11:46:02.614Z,4.40
2018-04-27T11:48:30.905Z,3.40
2018-04-27T11:50:58.398Z,4.10
2018-04-27T11:53:25.900Z,3.58
2018-04-27T11:55:53.397Z,4.05
2018-04-27T11:58:23.634Z,4.47
2018-04-27T12:00:51.219Z,4.03
2018-04-27T12:03:18.733Z,3.75
2018-04-27T12:05:46.224Z,2.92
2018-04-27T12:08:13.731Z,3.40
2018-04-27T12:10:41.276Z,3.33
2018-04-27T12:13:08.785Z,4.00
2018-04-27T12:15:36.278Z,2.92
2018-04-27T12:18:03.809Z,4.20
2018-04-27T12:20:31.376Z,3.42
2018-04-27T12:22:58.886Z,3.65
2018-04-27T12:25:26.365Z,4.62
2018-04-27T12:27:53.874Z,3.60
2018-04-27T12:30:21.372Z,3.30
2018-04-27T12:32:49.651Z,3.60
2018-04-27T12:35:17.141Z,3.50
2018-04-27T12:37:44.651Z,3.92
2018-04-27T12:40:12.158Z,3.30
2018-04-27T12:42:39.674Z,3.65
2018-04-27T12:45:07.200Z,4.00
2018-04-27T12:47:34.687Z,4.30
2018-04-27T12:50:02.202Z,4.00
2018-04-27T12:52:29.731Z,4.50
2018-04-27T12:54:58.026Z,4.05
2018-04-27T12:57:25.528Z,3.45
2018-04-27T12:59:53.012Z,3.65
2018-04-27T13:02:20.517Z,3.70
2018-04-27T13:04:48.093Z,3.30
2018-04-27T13:07:15.605Z,3.83
2018-04-27T13:09:43.101Z,4.60
2018-04-27T13:12:10.606Z,3.75
2018-04-27T13:14:38.112Z,3.60
2018-04-27T13:17:05.653Z,4.18
2018-04-27T13:19:33.159Z,3.72
2018-04-27T13:22:00.690Z,3.37
2018-04-27T13:24:28.183Z,3.00
2018-04-27T13:26:55.706Z,3.45
2018-04-27T13:29:23.222Z,2.90
2018-04-27T13:31:51.525Z,3.67
2018-04-27T13:34:19.028Z,2.92
2018-04-27T13:36:47.237Z,3.20
2018-04-27T13:39:14.742Z,3.78
2018-04-27T13:41:42.231Z,4.57
2018-04-27T13:44:09.738Z,3.80
2018-04-27T13:46:37.230Z,4.50
2018-04-27T13:49:04.732Z,3.60
2018-04-27T13:51:32.260Z,3.50
2018-04-27T13:53:59.757Z,3.33
2018-04-27T13:56:28.190Z,4.40
2018-04-27T13:58:55.703Z,3.62
2018-04-27T14:01:23.212Z,3.67
2018-04-27T14:03:50.724Z,4.00
2018-04-27T14:06:18.212Z,3.62
2018-04-27T14:08:45.714Z,3.75
2018-04-27T14:11:13.253Z,3.40
2018-04-27T14:13:40.734Z,3.50
2018-04-27T14:16:08.220Z,3.15
2018-04-27T14:18:35.721Z,3.40
2018-04-27T14:21:03.209Z,3.60
2018-04-27T14:23:30.713Z,3.12
2018-04-27T14:25:58.204Z,3.95
2018-04-27T14:28:25.705Z,3.50
2018-04-27T14:30:53.205Z,3.62
2018-04-27T14:33:20.705Z,2.58
2018-04-27T14:35:48.191Z,3.00
2018-04-27T14:38:15.691Z,3.37
2018-04-27T14:40:43.177Z,3.10
2018-04-27T14:43:10.694Z,3.10
2018-04-27T14:45:38.177Z,3.30
2018-04-27T14:48:05.677Z,2.90
2018-04-27T14:50:33.178Z,3.70
2018-04-27T14:53:00.715Z,2.70
2018-04-27T14:55:28.202Z,3.55
2018-04-27T14:57:55.689Z,2.72
2018-04-27T15:00:23.201Z,2.85
2018-04-27T15:02:50.695Z,3.33
2018-04-27T15:05:18.205Z,3.45
2018-04-27T15:07:45.698Z,4.35
2018-04-27T15:10:13.228Z,3.80
2018-04-27T15:12:40.717Z,3.35
2018-04-27T15:15:08.221Z,3.62
2018-04-27T15:17:35.714Z,5.50
2018-04-27T15:20:03.217Z,3.28
2018-04-27T15:22:30.710Z,3.25
2018-04-27T15:24:58.213Z,2.62
2018-04-27T15:27:25.700Z,3.55
2018-04-27T15:29:53.212Z,3.35
2018-04-27T15:32:25.174Z,2.97
2018-04-27T15:34:52.686Z,2.80
2018-04-27T15:37:20.197Z,3.30
2018-04-27T15:39:47.722Z,3.15
2018-04-27T15:42:15.211Z,3.30
2018-04-27T15:44:42.717Z,2.85
2018-04-27T15:47:10.207Z,3.25
2018-04-27T15:49:37.712Z,3.10
2018-04-27T15:52:05.263Z,3.05
2018-04-27T15:54:32.748Z,3.67
2018-04-27T15:57:00.236Z,3.15
2018-04-27T15:59:27.765Z,2.75
2018-04-27T16:01:55.253Z,2.87
2018-04-27T16:04:22.761Z,2.72
2018-04-27T16:06:50.249Z,3.62
2018-04-27T16:09:17.790Z,3.28
2018-04-27T16:11:59.910Z,3.00
2018-04-27T16:14:27.420Z,3.80
2018-04-27T16:16:54.913Z,2.70
2018-04-27T16:19:22.418Z,2.53
2018-04-27T16:21:49.920Z,2.85
2018-04-27T16:24:17.436Z,2.12
2018-04-27T16:26:44.930Z,2.80
2018-04-27T16:29:12.436Z,2.30
2018-04-27T16:31:40.702Z,2.65
2018-04-27T16:34:08.223Z,2.45
2018-04-27T16:36:35.730Z,2.47
2018-04-27T16:39:03.246Z,2.45
2018-04-27T16:41:30.743Z,1.92
2018-04-27T16:43:58.263Z,2.10
2018-04-27T16:46:25.781Z,3.33
2018-04-27T16:48:53.281Z,2.20
2018-04-27T16:51:20.793Z,2.33
2018-04-27T16:53:48.294Z,2.25
2018-04-27T16:56:15.814Z,2.20
2018-04-27T16:58:43.335Z,2.33
2018-04-27T17:01:10.857Z,2.35
2018-04-27T17:03:38.370Z,1.95
2018-04-27T17:06:05.889Z,2.90
2018-04-27T17:08:33.398Z,3.65
2018-04-27T17:11:00.921Z,2.75
2018-04-27T17:13:28.446Z,2.35
2018-04-27T17:15:55.942Z,4.15
2018-04-27T17:18:23.446Z,3.87
2018-04-27T17:20:50.948Z,2.60
2018-04-27T17:23:18.446Z,1.90
2018-04-27T17:25:45.984Z,8.93
2018-04-27T17:28:13.469Z,2.75
2018-04-27T17:30:41.035Z,3.25
2018-04-27T17:33:08.719Z,2.15
2018-04-27T17:35:36.314Z,1.90
2018-04-27T17:38:03.869Z,2.00
2018-04-27T17:40:31.513Z,2.12
2018-04-27T17:42:59.007Z,3.25
2018-04-27T17:45:26.517Z,1.70
2018-04-27T17:47:55.030Z,1.42
2018-04-27T17:50:22.602Z,1.40
2018-04-27T17:52:50.203Z,1.45
2018-04-27T17:55:17.768Z,1.25
2018-04-27T17:57:45.522Z,1.33
2018-04-27T18:00:13.082Z,1.10
2018-04-27T18:02:41.364Z,1.20
2018-04-27T18:05:08.884Z,1.27
2018-04-27T18:07:38.026Z,1.65
2018-04-27T18:10:06.765Z,1.20
2018-04-27T18:12:34.551Z,1.92
2018-04-27T18:15:02.053Z,1.58
2018-04-27T18:17:32.078Z,1.52
2018-04-27T18:20:00.311Z,1.50
2018-04-27T18:22:27.826Z,1.50
2018-04-27T18:24:55.317Z,1.77
2018-04-27T18:27:23.155Z,1.30
2018-04-27T18:29:50.958Z,1.60
2018-04-27T18:32:19.214Z,1.20
2018-04-27T18:34:46.704Z,2.28
2018-04-27T18:37:14.234Z,1.60
2018-04-27T18:39:41.776Z,1.75
2018-04-27T18:42:09.342Z,1.58
2018-04-27T18:44:36.902Z,1.60
2018-04-27T18:47:04.357Z,1.65
2018-04-27T18:49:32.273Z,1.42
2018-04-27T18:51:59.777Z,1.80
2018-04-27T18:54:27.282Z,1.50
2018-04-27T18:56:54.785Z,1.42
2018-04-27T18:59:24.277Z,1.70
2018-04-27T19:01:52.556Z,1.80
2018-04-27T19:04:20.049Z,1.95
2018-04-27T19:06:48.329Z,3.37
2018-04-27T19:09:15.837Z,1.30
2018-04-27T19:11:43.337Z,1.60
2018-04-27T19:14:10.869Z,1.50
2018-04-27T19:16:38.402Z,1.50
2018-04-27T19:19:07.888Z,1.90
2018-04-27T19:21:35.438Z,2.00
2018-04-27T19:24:03.239Z,2.15
2018-04-27T19:26:30.742Z,2.03
2018-04-27T19:28:58.249Z,1.75
2018-04-27T19:31:25.782Z,5.15
2018-04-27T19:33:53.338Z,4.15
2018-04-27T19:36:21.598Z,4.45
2018-04-27T19:38:49.104Z,4.37
2018-04-27T19:41:16.612Z,4.22
2018-04-27T19:43:44.138Z,4.62
2018-04-27T19:46:11.639Z,4.80
2018-04-27T19:48:39.212Z,4.43
2018-04-27T19:51:06.753Z,5.50
2018-04-27T19:53:34.276Z,6.53
2018-04-27T19:56:01.814Z,4.05
2018-04-27T19:58:29.315Z,4.10
2018-04-27T20:00:56.860Z,4.53
2018-04-27T20:03:24.369Z,4.20
2018-04-27T20:05:51.867Z,4.25
2018-04-27T20:08:23.120Z,3.33
2018-04-27T20:10:50.949Z,3.20
2018-04-27T20:13:19.363Z,4.00
2018-04-27T20:15:48.350Z,2.60
2018-04-27T20:18:32.293Z,2.70
2018-04-27T20:21:00.584Z,3.28
2018-04-27T20:23:33.900Z,3.50
2018-04-27T20:26:11.113Z,2.30
2018-04-27T20:28:40.499Z,2.50
2018-04-27T20:31:08.239Z,2.00
2018-04-27T20:33:35.811Z,2.03
2018-04-27T20:36:03.288Z,1.85
2018-04-27T20:38:31.654Z,2.72
2018-04-27T20:41:14.344Z,2.08
2018-04-27T20:43:44.601Z,2.15
2018-04-27T20:46:12.938Z,1.90
2018-04-27T20:48:40.493Z,2.35
2018-04-27T20:51:08.904Z,2.00
2018-04-27T20:54:00.141Z,2.08
2018-04-27T20:56:28.961Z,1.75
2018-04-27T20:58:57.263Z,1.73
2018-04-27T21:01:25.584Z,2.28
2018-04-27T21:03:54.002Z,2.53
2018-04-27T21:06:22.284Z,1.80
2018-04-27T21:08:49.785Z,2.00
2018-04-27T21:11:17.277Z,1.77
2018-04-27T21:13:44.837Z,1.98
2018-04-27T21:16:12.356Z,2.03
2018-04-27T21:18:39.906Z,1.75
2018-04-27T21:21:07.397Z,2.05
2018-04-27T21:23:34.902Z,1.85
2018-04-27T21:26:02.397Z,1.92
2018-04-27T21:28:30.875Z,2.28
2018-04-27T21:30:58.371Z,1.95
2018-04-27T21:33:27.688Z,2.67
2018-04-27T21:35:55.182Z,2.83
2018-04-27T21:44:27.971Z,4.03
2018-04-27T21:46:59.556Z,3.08
2018-04-27T21:49:27.053Z,3.00
2018-04-27T21:51:58.071Z,2.30
2018-04-27T21:54:28.529Z,2.30
2018-04-27T21:57:14.399Z,3.20
2018-04-27T21:59:45.369Z,2.37
2018-04-27T22:02:28.656Z,2.75
2018-04-27T22:05:16.954Z,2.53
2018-04-27T22:07:48.320Z,2.20
2018-04-27T22:10:15.825Z,2.20
2018-04-27T22:12:44.017Z,2.30
2018-04-27T22:15:11.520Z,2.83
2018-04-27T22:17:39.804Z,2.60
2018-04-27T22:20:08.218Z,2.65
2018-04-27T22:22:35.701Z,2.22
2018-04-27T22:25:35.339Z,2.00
2018-04-27T22:28:02.840Z,3.28
2018-04-27T22:30:34.753Z,2.35
2018-04-27T22:35:58.645Z,1.80
2018-04-27T22:38:30.869Z,1.98
2018-04-27T22:40:58.357Z,2.53
2018-04-27T22:43:26.618Z,2.25
2018-04-27T22:46:14.725Z,2.00
2018-04-27T22:48:46.708Z,2.40
2018-04-27T22:51:17.829Z,2.30
2018-04-27T22:53:55.241Z,2.00
2018-04-27T22:59:28.160Z,1.65
2018-04-27T23:02:19.324Z,2.37
2018-04-27T23:04:46.862Z,2.05
2018-04-27T23:10:07.126Z,2.30
2018-04-27T23:12:36.149Z,3.42
2018-04-27T23:15:06.395Z,1.95
2018-04-27T23:17:33.918Z,2.22
2018-04-27T23:20:13.234Z,1.58
2018-04-27T23:22:40.734Z,2.30
2018-04-27T23:25:09.853Z,2.60
2018-04-27T23:27:37.340Z,2.55
2018-04-27T23:30:05.707Z,2.10
2018-04-27T23:32:33.199Z,2.42
2018-04-27T23:35:00.710Z,2.50
2018-04-27T23:37:28.197Z,2.60
2018-04-27T23:39:55.709Z,2.53
2018-04-27T23:42:24.107Z,2.40
2018-04-27T23:44:51.634Z,2.10
2018-04-27T23:47:19.136Z,1.87
2018-04-27T23:49:46.653Z,2.53
2018-04-27T23:52:14.138Z,2.10
2018-04-27T23:54:41.653Z,2.25
2018-04-27T23:57:09.147Z,2.58
2018-04-27T23:59:40.317Z,2.28
